createdAt,value
2019-04-11T00:02:10.627Z,99083.33
2019-04-11T00:04:40.147Z,99087.39
2019-04-11T00:07:09.460Z,99082.55
2019-04-11T00:09:38.819Z,99080.90
2019-04-11T00:12:08.473Z,99084.78
2019-04-11T00:14:38.048Z,99085.51
2019-04-11T00:17:07.831Z,99075.45
2019-04-11T00:19:37.726Z,99079.80
2019-04-11T00:22:07.177Z,99080.38
2019-04-11T00:24:36.797Z,99075.94
2019-04-11T00:27:06.169Z,99073.13
2019-04-11T00:29:36.493Z,99083.25
2019-04-11T00:32:08.029Z,99081.49
2019-04-11T00:34:37.372Z,99084.28
2019-04-11T00:37:06.733Z,99081.89
2019-04-11T00:39:35.894Z,99079.71
2019-04-11T00:42:06.099Z,99084.45
2019-04-11T00:44:35.770Z,99082.95
2019-04-11T00:47:04.988Z,99085.34
2019-04-11T00:49:34.653Z,99081.71
2019-04-11T00:52:04.569Z,99082.83
2019-04-11T00:54:35.178Z,99075.91
2019-04-11T00:57:04.625Z,99072.70
2019-04-11T00:59:34.182Z,99077.97
2019-04-11T01:02:05.083Z,99077.30
2019-04-11T01:04:34.959Z,99079.41
2019-04-11T01:07:04.749Z,99080.37
2019-04-11T01:09:34.733Z,99085.17
2019-04-11T01:12:04.654Z,99083.66
2019-04-11T01:14:35.954Z,99079.97
2019-04-11T01:17:06.197Z,99081.63
2019-04-11T01:19:35.820Z,99090.17
2019-04-11T01:22:05.753Z,99085.87
2019-04-11T01:24:35.597Z,99087.03
2019-04-11T01:27:05.646Z,99087.31
2019-04-11T01:29:35.662Z,99091.35
2019-04-11T01:32:06.728Z,99084.36
2019-04-11T01:34:37.006Z,99084.22
2019-04-11T01:37:07.254Z,99085.52
2019-04-11T01:39:50.187Z,99083.05
2019-04-11T01:42:19.728Z,99082.73
2019-04-11T01:44:49.325Z,99079.15
2019-04-11T01:47:37.373Z,99087.17
2019-04-11T01:50:08.746Z,99086.82
2019-04-11T01:52:38.283Z,99082.45
2019-04-11T01:55:08.244Z,99089.78
2019-04-11T01:57:38.107Z,99096.07
2019-04-11T02:00:09.739Z,99098.35
2019-04-11T02:02:56.994Z,99101.91
2019-04-11T02:05:29.262Z,99095.00
2019-04-11T02:07:58.813Z,99101.91
2019-04-11T02:10:28.717Z,99096.28
2019-04-11T02:12:59.640Z,99100.05
2019-04-11T02:15:30.366Z,99102.46
2019-04-11T02:17:59.828Z,99104.09
2019-04-11T02:20:29.199Z,99100.67
2019-04-11T02:23:06.782Z,99102.92
2019-04-11T02:25:38.723Z,99104.03
2019-04-11T02:28:10.420Z,99102.57
2019-04-11T02:30:44.153Z,99099.16
2019-04-11T02:33:15.331Z,99105.66
2019-04-11T02:35:46.330Z,99103.11
2019-04-11T02:38:16.512Z,99103.47
2019-04-11T02:40:47.455Z,99108.00
2019-04-11T02:43:17.620Z,99105.98
2019-04-11T02:46:00.156Z,99106.30
2019-04-11T02:48:18.504Z,99110.30
2019-04-11T02:50:50.173Z,99111.10
2019-04-11T02:53:21.297Z,99114.28
2019-04-11T02:55:52.187Z,99112.89
2019-04-11T02:58:23.235Z,99116.71
2019-04-11T03:00:55.940Z,99108.36
2019-04-11T03:03:25.353Z,99111.98
2019-04-11T03:05:55.464Z,99118.89
2019-04-11T03:08:26.848Z,99122.57
2019-04-11T03:10:57.559Z,99122.22
2019-04-11T03:13:27.311Z,99117.37
2019-04-11T03:16:12.839Z,99124.95
2019-04-11T03:18:45.807Z,99123.91
2019-04-11T03:21:04.590Z,99127.23
2019-04-11T03:23:31.098Z,99125.94
2019-04-11T03:26:00.749Z,99131.03
2019-04-11T03:28:33.311Z,99130.09
2019-04-11T03:31:37.310Z,99130.45
2019-04-11T03:37:01.049Z,99130.45
2019-04-11T03:38:57.042Z,99132.08
2019-04-11T03:41:25.362Z,99134.94
2019-04-11T03:43:51.115Z,99130.23
2019-04-11T03:46:25.062Z,99132.61
2019-04-11T03:48:53.004Z,99136.05
2019-04-11T03:51:13.141Z,99141.70
2019-04-11T03:56:14.003Z,99146.31
2019-04-11T03:58:43.990Z,99145.96
2019-04-11T04:01:16.308Z,99145.02
2019-04-11T04:03:46.706Z,99142.88
2019-04-11T04:06:17.014Z,99137.90
2019-04-11T04:08:48.280Z,99141.05
2019-04-11T04:11:27.336Z,99147.55
2019-04-11T04:13:59.416Z,99154.05
2019-04-11T04:16:40.858Z,99157.52
2019-04-11T04:19:15.726Z,99155.97
2019-04-11T04:21:51.247Z,99157.84
2019-04-11T04:24:36.711Z,99163.53
2019-04-11T04:27:05.232Z,99162.10
2019-04-11T04:29:37.741Z,99162.23
2019-04-11T04:32:08.268Z,99161.22
2019-04-11T04:34:40.174Z,99165.12
2019-04-11T04:37:09.673Z,99168.44
2019-04-11T04:39:39.994Z,99172.20
2019-04-11T04:42:21.046Z,99173.43
2019-04-11T04:44:42.880Z,99165.85
2019-04-11T04:47:21.139Z,99165.45
2019-04-11T04:49:43.684Z,99174.38
2019-04-11T04:52:14.397Z,99172.67
2019-04-11T04:54:44.476Z,99177.62
2019-04-11T04:57:15.490Z,99185.02
2019-04-11T04:59:44.985Z,99178.03
2019-04-11T05:02:14.980Z,99182.77
2019-04-11T05:04:45.858Z,99185.92
2019-04-11T05:07:15.323Z,99189.06
2019-04-11T05:09:45.852Z,99191.08
2019-04-11T05:12:16.297Z,99185.78
2019-04-11T05:14:45.686Z,99188.66
2019-04-11T05:17:14.961Z,99187.35
2019-04-11T05:19:44.584Z,99186.14
2019-04-11T05:22:14.681Z,99185.38
2019-04-11T05:24:44.032Z,99185.60
2019-04-11T05:27:13.178Z,99193.68
2019-04-11T05:29:42.242Z,99194.48
2019-04-11T05:32:11.484Z,99191.84
2019-04-11T05:34:41.437Z,99195.26
2019-04-11T05:37:11.077Z,99199.19
2019-04-11T05:39:41.294Z,99207.55
2019-04-11T05:42:15.888Z,99210.69
2019-04-11T05:44:43.186Z,99202.77
2019-04-11T05:47:18.161Z,99211.80
2019-04-11T05:49:51.315Z,99209.54
2019-04-11T05:52:23.986Z,99217.84
2019-04-11T05:54:54.964Z,99218.88
2019-04-11T05:57:32.322Z,99219.62
2019-04-11T05:59:56.575Z,99219.13
2019-04-11T06:02:29.046Z,99218.16
2019-04-11T06:05:06.852Z,99214.08
2019-04-11T06:07:42.153Z,99209.14
2019-04-11T06:10:12.849Z,99204.74
2019-04-11T06:12:59.549Z,99210.90
2019-04-11T06:15:31.278Z,99208.98
2019-04-11T06:18:02.776Z,99209.00
2019-04-11T06:20:39.720Z,99210.08
2019-04-11T06:23:10.767Z,99214.83
2019-04-11T06:25:49.130Z,99214.80
2019-04-11T06:28:27.211Z,99220.09
2019-04-11T06:31:01.321Z,99220.36
2019-04-11T06:33:32.443Z,99217.89
2019-04-11T06:36:21.459Z,99220.97
2019-04-11T06:38:58.760Z,99224.06
2019-04-11T06:41:30.597Z,99227.34
2019-04-11T06:44:16.503Z,99223.80
2019-04-11T06:46:56.203Z,99218.95
2019-04-11T06:49:38.405Z,99224.64
2019-04-11T06:52:10.614Z,99227.08
2019-04-11T06:54:47.549Z,99222.92
2019-04-11T06:57:18.777Z,99228.66
2019-04-11T06:59:52.484Z,99229.70
2019-04-11T07:02:24.636Z,99233.80
2019-04-11T07:05:04.651Z,99231.39
2019-04-11T07:07:35.674Z,99231.71
2019-04-11T07:10:07.176Z,99240.58
2019-04-11T07:12:55.531Z,99230.80
2019-04-11T07:15:27.243Z,99237.19
2019-04-11T07:18:14.350Z,99243.83
2019-04-11T07:20:45.797Z,99244.03
2019-04-11T07:23:33.207Z,99251.48
2019-04-11T07:26:18.802Z,99251.69
2019-04-11T07:28:50.254Z,99252.03
2019-04-11T07:31:21.762Z,99260.17
2019-04-11T07:34:08.914Z,99260.38
2019-04-11T07:36:46.251Z,99258.84
2019-04-11T07:39:17.251Z,99267.88
2019-04-11T07:41:48.032Z,99267.58
2019-04-11T07:44:27.408Z,99277.48
2019-04-11T07:47:19.227Z,99271.27
2019-04-11T07:49:51.128Z,99279.72
2019-04-11T07:52:21.711Z,99286.80
2019-04-11T07:54:51.435Z,99283.45
2019-04-11T07:57:26.310Z,99288.55
2019-04-11T08:00:00.232Z,99290.69
2019-04-11T08:02:47.789Z,99293.89
2019-04-11T08:05:36.907Z,99296.04
2019-04-11T08:08:24.065Z,99296.45
2019-04-11T08:11:11.539Z,99302.67
2019-04-11T08:13:42.963Z,99300.42
2019-04-11T08:16:22.885Z,99298.82
2019-04-11T08:19:13.101Z,99301.16
2019-04-11T08:21:56.749Z,99297.60
2019-04-11T08:24:29.661Z,99300.83
2019-04-11T08:27:17.638Z,99309.33
2019-04-11T08:29:50.074Z,99317.34
2019-04-11T08:32:27.431Z,99316.68
2019-04-11T08:35:17.642Z,99316.90
2019-04-11T08:38:04.887Z,99310.30
2019-04-11T08:40:35.829Z,99312.09
2019-04-11T08:43:24.656Z,99315.97
2019-04-11T08:45:56.245Z,99313.45
2019-04-11T08:48:26.677Z,99318.21
2019-04-11T08:51:00.939Z,99325.56
2019-04-11T08:53:35.080Z,99317.66
2019-04-11T08:56:05.552Z,99326.42
2019-04-11T08:58:55.128Z,99325.83
2019-04-11T09:01:25.121Z,99329.92
2019-04-11T09:04:13.710Z,99330.77
2019-04-11T09:06:43.097Z,99329.73
2019-04-11T09:09:31.401Z,99328.94
2019-04-11T09:12:02.606Z,99329.13
2019-04-11T09:14:40.051Z,99328.36
2019-04-11T09:17:12.226Z,99332.89
2019-04-11T09:19:47.239Z,99327.45
2019-04-11T09:22:18.257Z,99325.94
2019-04-11T09:25:05.364Z,99320.78
2019-04-11T09:27:46.696Z,99329.78
2019-04-11T09:30:33.696Z,99331.00
2019-04-11T09:33:20.915Z,99323.05
2019-04-11T09:35:51.771Z,99331.30
2019-04-11T09:38:22.491Z,99335.59
2019-04-11T09:41:09.301Z,99335.38
2019-04-11T09:43:40.249Z,99335.12
2019-04-11T09:46:14.471Z,99334.70
2019-04-11T09:48:46.341Z,99337.87
2019-04-11T09:51:32.148Z,99343.95
2019-04-11T09:54:03.596Z,99341.94
2019-04-11T09:56:40.334Z,99344.58
2019-04-11T09:59:14.380Z,99349.05
2019-04-11T10:02:03.126Z,99348.34
2019-04-11T10:04:34.046Z,99345.74
2019-04-11T10:07:17.554Z,99353.09
2019-04-11T10:09:48.850Z,99344.53
2019-04-11T10:12:28.357Z,99346.94
2019-04-11T10:14:57.821Z,99343.95
2019-04-11T10:17:31.797Z,99351.14
2019-04-11T10:20:02.898Z,99341.06
2019-04-11T10:22:36.619Z,99344.51
2019-04-11T10:25:09.135Z,99340.55
2019-04-11T10:27:57.243Z,99344.08
2019-04-11T10:30:34.063Z,99347.47
2019-04-11T10:33:10.839Z,99345.81
2019-04-11T10:35:58.928Z,99351.08
2019-04-11T10:38:28.738Z,99347.73
2019-04-11T10:41:00.891Z,99357.17
2019-04-11T10:43:32.136Z,99349.22
2019-04-11T10:46:03.007Z,99348.14
2019-04-11T10:48:39.476Z,99347.56
2019-04-11T10:51:12.963Z,99343.86
2019-04-11T10:53:43.772Z,99341.73
2019-04-11T10:56:18.138Z,99338.39
2019-04-11T10:58:49.155Z,99341.08
2019-04-11T11:01:26.714Z,99340.72
2019-04-11T11:03:57.537Z,99339.99
2019-04-11T11:06:34.268Z,99339.27
2019-04-11T11:09:17.884Z,99349.03
2019-04-11T11:11:54.830Z,99342.06
2019-04-11T11:14:42.861Z,99343.45
2019-04-11T11:17:48.227Z,99344.03
2019-04-11T11:20:33.632Z,99346.99
2019-04-11T11:22:58.398Z,99354.25
2019-04-11T11:25:37.894Z,99345.11
2019-04-11T11:28:07.475Z,99342.47
2019-04-11T11:30:39.925Z,99336.72
2019-04-11T11:33:11.026Z,99327.73
2019-04-11T11:35:45.741Z,99321.56
2019-04-11T11:38:19.951Z,99328.31
2019-04-11T11:41:00.463Z,99325.48
2019-04-11T11:43:32.992Z,99319.22
2019-04-11T11:46:25.515Z,99323.48
2019-04-11T11:48:54.266Z,99317.89
2019-04-11T11:51:37.588Z,99314.55
2019-04-11T11:54:11.578Z,99317.63
2019-04-11T11:56:42.845Z,99311.05
2019-04-11T11:59:25.633Z,99304.22
2019-04-11T12:01:56.468Z,99308.72
2019-04-11T12:04:35.920Z,99314.59
2019-04-11T12:07:12.650Z,99303.84
2019-04-11T12:09:53.025Z,99310.98
2019-04-11T12:12:27.411Z,99311.00
2019-04-11T12:15:17.702Z,99299.22
2019-04-11T12:17:59.648Z,99300.05
2019-04-11T12:20:34.687Z,99304.12
2019-04-11T12:23:06.657Z,99303.36
2019-04-11T12:25:38.912Z,99309.51
2019-04-11T12:28:14.636Z,99306.87
2019-04-11T12:30:42.466Z,99302.11
2019-04-11T12:33:25.710Z,99312.86
2019-04-11T12:35:58.925Z,99310.42
2019-04-11T12:38:29.120Z,99314.98
2019-04-11T12:41:08.864Z,99310.25
2019-04-11T12:43:42.282Z,99307.16
2019-04-11T12:46:30.080Z,99305.48
2019-04-11T12:49:01.134Z,99302.31
2019-04-11T12:51:37.687Z,99307.05
2019-04-11T12:54:07.397Z,99292.84
2019-04-11T12:56:50.229Z,99294.81
2019-04-11T12:59:19.620Z,99304.95
2019-04-11T13:01:50.490Z,99292.83
2019-04-11T13:04:21.411Z,99286.75
2019-04-11T13:06:58.117Z,99287.49
2019-04-11T13:09:46.859Z,99287.80
2019-04-11T13:12:23.846Z,99290.45
2019-04-11T13:15:06.772Z,99289.39
2019-04-11T13:17:37.564Z,99296.92
2019-04-11T13:20:09.383Z,99294.68
2019-04-11T13:22:39.850Z,99295.03
2019-04-11T13:25:27.093Z,99289.57
2019-04-11T13:27:57.982Z,99290.52
2019-04-11T13:30:44.985Z,99287.63
2019-04-11T13:33:15.994Z,99284.77
2019-04-11T13:36:04.641Z,99283.63
2019-04-11T13:38:36.076Z,99293.98
2019-04-11T13:41:23.160Z,99292.66
2019-04-11T13:43:54.028Z,99294.11
2019-04-11T13:46:37.087Z,99291.47
2019-04-11T13:49:19.770Z,99290.15
2019-04-11T13:52:05.727Z,99290.17
2019-04-11T13:54:42.420Z,99286.23
2019-04-11T13:57:28.268Z,99290.61
2019-04-11T14:00:15.417Z,99293.61
2019-04-11T14:02:51.227Z,99292.92
2019-04-11T14:05:18.837Z,99284.63
2019-04-11T14:07:49.265Z,99288.18
2019-04-11T14:10:19.496Z,99289.05
2019-04-11T14:12:48.726Z,99290.09
2019-04-11T14:15:30.281Z,99291.66
2019-04-11T14:18:06.983Z,99300.16
2019-04-11T14:20:41.747Z,99290.59
2019-04-11T14:23:23.446Z,99295.83
2019-04-11T14:26:00.620Z,99290.56
2019-04-11T14:28:40.280Z,99294.20
2019-04-11T14:31:14.366Z,99289.16
2019-04-11T14:33:45.256Z,99283.58
2019-04-11T14:36:33.840Z,99289.81
2019-04-11T14:39:04.650Z,99283.94
2019-04-11T14:41:43.624Z,99291.22
2019-04-11T14:44:15.794Z,99291.36
2019-04-11T14:46:55.609Z,99298.21
2019-04-11T14:49:27.059Z,99296.41
2019-04-11T14:52:09.145Z,99290.84
2019-04-11T14:54:42.671Z,99292.49
2019-04-11T14:57:22.752Z,99293.45
2019-04-11T14:59:54.145Z,99294.61
2019-04-11T15:02:28.166Z,99287.81
2019-04-11T15:05:15.423Z,99287.91
2019-04-11T15:07:46.075Z,99277.14
2019-04-11T15:10:32.342Z,99282.45
2019-04-11T15:13:01.650Z,99285.78
2019-04-11T15:15:38.323Z,99283.44
2019-04-11T15:18:07.536Z,99281.42
2019-04-11T15:20:54.196Z,99286.49
2019-04-11T15:23:19.655Z,99289.34
2019-04-11T15:26:08.189Z,99288.09
2019-04-11T15:28:39.336Z,99293.26
2019-04-11T15:31:19.521Z,99286.81
2019-04-11T15:33:53.352Z,99291.75
2019-04-11T15:36:27.706Z,99288.09
2019-04-11T15:39:05.937Z,99291.28
2019-04-11T15:41:35.401Z,99286.80
2019-04-11T15:44:18.651Z,99292.30
2019-04-11T15:46:48.516Z,99296.68
2019-04-11T15:49:35.760Z,99303.06
2019-04-11T15:52:07.893Z,99301.26
2019-04-11T15:54:50.728Z,99301.48
2019-04-11T15:57:26.824Z,99309.04
2019-04-11T15:59:57.213Z,99307.39
2019-04-11T16:02:44.074Z,99306.66
2019-04-11T16:05:32.190Z,99301.72
2019-04-11T16:08:21.330Z,99308.48
2019-04-11T16:10:52.223Z,99307.31
2019-04-11T16:13:31.978Z,99303.42
2019-04-11T16:16:07.045Z,99306.72
2019-04-11T16:18:41.115Z,99310.08
2019-04-11T16:21:18.617Z,99313.51
2019-04-11T16:23:59.290Z,99324.97
2019-04-11T16:26:35.725Z,99317.17
2019-04-11T16:29:12.171Z,99322.29
2019-04-11T16:31:42.117Z,99327.45
2019-04-11T16:34:15.848Z,99329.55
2019-04-11T16:36:45.458Z,99325.14
2019-04-11T16:39:33.086Z,99328.41
2019-04-11T16:42:06.719Z,99326.20
2019-04-11T16:44:56.047Z,99331.41
2019-04-11T16:47:26.819Z,99334.36
2019-04-11T16:49:57.131Z,99335.11
2019-04-11T16:52:26.864Z,99335.92
2019-04-11T16:54:56.114Z,99339.15
2019-04-11T16:57:25.261Z,99348.78
2019-04-11T16:59:54.533Z,99348.19
2019-04-11T17:02:24.247Z,99355.17
2019-04-11T17:04:55.938Z,99352.89
2019-04-11T17:07:32.289Z,99351.69
2019-04-11T17:10:02.778Z,99361.33
2019-04-11T17:12:31.912Z,99364.61
2019-04-11T17:15:01.792Z,99360.51
2019-04-11T17:17:31.653Z,99368.52
2019-04-11T17:20:01.081Z,99368.52
2019-04-11T17:22:30.309Z,99371.11
2019-04-11T17:24:59.677Z,99371.73
2019-04-11T17:27:28.963Z,99376.37
2019-04-11T17:29:58.216Z,99373.97
2019-04-11T17:32:27.437Z,99384.73
2019-04-11T17:34:56.657Z,99382.63
2019-04-11T17:37:25.943Z,99379.17
2019-04-11T17:39:55.150Z,99379.89
2019-04-11T17:42:24.409Z,99380.34
2019-04-11T17:44:53.661Z,99379.23
2019-04-11T17:47:26.780Z,99381.17
2019-04-11T17:49:53.769Z,99383.97
2019-04-11T17:52:23.024Z,99385.27
2019-04-11T17:54:54.292Z,99385.88
2019-04-11T17:57:26.634Z,99388.36
2019-04-11T17:59:54.076Z,99396.52
2019-04-11T18:02:23.219Z,99396.39
2019-04-11T18:04:52.403Z,99394.70
2019-04-11T18:07:21.715Z,99402.16
2019-04-11T18:09:51.016Z,99398.51
2019-04-11T18:12:20.236Z,99396.39
2019-04-11T18:14:49.630Z,99401.23
2019-04-11T18:17:19.087Z,99399.55
2019-04-11T18:19:48.301Z,99407.20
2019-04-11T18:22:17.647Z,99409.68
2019-04-11T18:24:49.887Z,99412.05
2019-04-11T18:27:21.737Z,99418.06
2019-04-11T18:29:52.650Z,99417.94
2019-04-11T18:32:20.298Z,99427.66
2019-04-11T18:34:50.982Z,99425.92
2019-04-11T18:37:20.238Z,99435.16
2019-04-11T18:39:49.719Z,99435.66
2019-04-11T18:42:18.958Z,99436.96
2019-04-11T18:44:48.234Z,99437.54
2019-04-11T18:47:17.537Z,99438.39
2019-04-11T18:49:47.177Z,99439.58
2019-04-11T18:52:19.886Z,99438.04
2019-04-11T18:54:47.681Z,99439.02
2019-04-11T18:57:16.832Z,99438.53
2019-04-11T18:59:46.069Z,99446.09
2019-04-11T19:02:15.271Z,99442.80
2019-04-11T19:04:44.474Z,99446.34
2019-04-11T19:07:14.155Z,99444.57
2019-04-11T19:09:43.866Z,99443.05
2019-04-11T19:12:15.874Z,99444.30
2019-04-11T19:14:46.099Z,99447.86
2019-04-11T19:17:16.374Z,99449.94
2019-04-11T19:19:48.611Z,99447.97
2019-04-11T19:22:19.490Z,99450.26
2019-04-11T19:24:47.719Z,99452.75
2019-04-11T19:27:20.290Z,99452.19
2019-04-11T19:29:50.357Z,99453.86
2019-04-11T19:32:19.758Z,99454.80
2019-04-11T19:34:49.287Z,99457.17
2019-04-11T19:37:18.638Z,99456.97
2019-04-11T19:39:47.986Z,99457.22
2019-04-11T19:42:19.673Z,99456.16
2019-04-11T19:44:49.699Z,99453.56
2019-04-11T19:47:22.295Z,99453.89
2019-04-11T19:49:51.659Z,99449.05
2019-04-11T19:52:21.146Z,99454.98
2019-04-11T19:54:50.301Z,99451.55
2019-04-11T19:57:19.951Z,99453.69
2019-04-11T19:59:49.257Z,99448.12
2019-04-11T20:02:18.397Z,99447.05
2019-04-11T20:04:47.847Z,99448.25
2019-04-11T20:07:17.256Z,99448.25
2019-04-11T20:09:46.498Z,99449.16
2019-04-11T20:12:15.792Z,99448.25
2019-04-11T20:14:45.149Z,99440.67
2019-04-11T20:17:14.463Z,99438.43
2019-04-11T20:19:43.713Z,99445.66
2019-04-11T20:22:12.967Z,99437.85
2019-04-11T20:24:45.975Z,99437.59
2019-04-11T20:27:13.115Z,99435.47
2019-04-11T20:29:42.404Z,99436.66
2019-04-11T20:32:11.568Z,99436.45
2019-04-11T20:34:40.794Z,99431.63
2019-04-11T20:37:12.999Z,99432.33
2019-04-11T20:39:46.394Z,99436.71
2019-04-11T20:42:13.790Z,99436.47
2019-04-11T20:44:44.270Z,99431.77
2019-04-11T20:47:16.850Z,99433.19
2019-04-11T20:49:47.553Z,99422.92
2019-04-11T20:52:16.979Z,99423.41
2019-04-11T20:54:47.423Z,99420.31
2019-04-11T20:57:25.669Z,99424.95
2019-04-11T20:59:49.041Z,99426.61
2019-04-11T21:02:19.831Z,99424.34
2019-04-11T21:04:50.729Z,99425.43
2019-04-11T21:07:23.502Z,99422.48
2019-04-11T21:09:52.790Z,99414.68
2019-04-11T21:12:23.696Z,99416.95
2019-04-11T21:14:54.545Z,99411.88
2019-04-11T21:17:25.278Z,99409.89
2019-04-11T21:19:54.631Z,99413.58
2019-04-11T21:22:25.544Z,99414.39
2019-04-11T21:24:59.468Z,99414.76
2019-04-11T21:27:29.560Z,99417.11
2019-04-11T21:30:00.047Z,99414.87
2019-04-11T21:32:31.967Z,99415.23
2019-04-11T21:35:02.332Z,99415.00
2019-04-11T21:37:31.924Z,99415.12
2019-04-11T21:40:01.162Z,99412.66
2019-04-11T21:42:30.414Z,99413.95
2019-04-11T21:44:59.926Z,99416.33
2019-04-11T21:47:31.668Z,99410.08
2019-04-11T21:50:00.813Z,99411.38
2019-04-11T21:52:32.297Z,99410.88
2019-04-11T21:55:01.745Z,99411.95
2019-04-11T21:57:32.587Z,99412.79
2019-04-11T22:00:03.296Z,99414.05
2019-04-11T22:02:33.984Z,99417.33
2019-04-11T22:05:04.858Z,99424.82
2019-04-11T22:07:34.171Z,99425.38
2019-04-11T22:10:06.988Z,99425.72
2019-04-11T22:12:35.162Z,99428.88
2019-04-11T22:15:06.140Z,99420.17
2019-04-11T22:17:35.351Z,99431.22
2019-04-11T22:20:06.369Z,99433.45
2019-04-11T22:22:35.614Z,99434.27
2019-04-11T22:25:06.702Z,99435.86
2019-04-11T22:27:35.930Z,99433.86
2019-04-11T22:30:07.849Z,99439.74
2019-04-11T22:32:37.142Z,99443.11
2019-04-11T22:35:06.847Z,99449.36
2019-04-11T22:37:36.263Z,99446.95
2019-04-11T22:40:07.438Z,99449.43
2019-04-11T22:42:36.637Z,99441.98
2019-04-11T22:45:08.497Z,99456.30
2019-04-11T22:47:38.296Z,99448.62
2019-04-11T22:50:10.060Z,99450.20
2019-04-11T22:52:39.866Z,99450.69
2019-04-11T22:55:11.306Z,99454.52
2019-04-11T22:57:43.703Z,99459.80
2019-04-11T23:00:15.137Z,99462.78
2019-04-11T23:03:01.788Z,99462.33
2019-04-11T23:05:31.026Z,99470.61
2019-04-11T23:08:02.709Z,99462.13
2019-04-11T23:10:31.067Z,99454.41
2019-04-11T23:13:00.231Z,99458.58
2019-04-11T23:15:29.427Z,99463.85
2019-04-11T23:17:58.560Z,99466.75
2019-04-11T23:20:27.741Z,99466.89
2019-04-11T23:22:56.926Z,99472.94
2019-04-11T23:25:26.050Z,99470.28
2019-04-11T23:27:55.170Z,99465.99
2019-04-11T23:30:24.367Z,99470.67
2019-04-11T23:32:53.492Z,99465.80
2019-04-11T23:35:22.746Z,99467.30
2019-04-11T23:37:52.324Z,99468.69
2019-04-11T23:40:22.027Z,99465.72
2019-04-11T23:42:51.379Z,99462.96
2019-04-11T23:45:24.583Z,99465.27
2019-04-11T23:47:54.390Z,99462.89
2019-04-11T23:50:25.216Z,99464.23
2019-04-11T23:52:57.255Z,99465.86
2019-04-11T23:55:29.950Z,99460.55
2019-04-11T23:57:56.651Z,99463.05
